sensor_id;sensor_type;location;lat;lon;timestamp;pressure;altitude;pressure_sealevel;temperature;humidity
67931;BME280;63902;52.000;5.954;2022-10-16T00:00:03;100631.84;;;9.09;100.00
67931;BME280;63902;52.000;5.954;2022-10-16T00:01:07;100626.69;;;9.06;100.00
67931;BME280;63902;52.000;5.954;2022-10-16T00:02:08;100620.66;;;9.03;100.00
67931;BME280;63902;52.000;5.954;2022-10-16T00:03:10;100628.41;;;9.07;100.00
67931;BME280;63902;52.000;5.954;2022-10-16T00:04:12;100621.50;;;9.03;100.00
67931;BME280;63902;52.000;5.954;2022-10-16T00:05:12;100631.94;;;9.08;100.00
67931;BME280;63902;52.000;5.954;2022-10-16T00:06:14;100617.94;;;9.04;100.00
67931;BME280;63902;52.000;5.954;2022-10-16T00:07:14;100629.28;;;9.08;100.00
67931;BME280;63902;52.000;5.954;2022-10-16T00:08:15;100629.34;;;9.06;100.00
67931;BME280;63902;52.000;5.954;2022-10-16T00:09:15;100633.88;;;9.03;100.00
67931;BME280;63902;52.000;5.954;2022-10-16T00:10:16;100630.38;;;9.02;100.00
67931;BME280;63902;52.000;5.954;2022-10-16T00:11:20;100628.72;;;9.00;100.00
67931;BME280;63902;52.000;5.954;2022-10-16T00:12:20;100624.41;;;8.97;100.00
67931;BME280;63902;52.000;5.954;2022-10-16T00:13:21;100631.41;;;8.98;100.00
67931;BME280;63902;52.000;5.954;2022-10-16T00:14:21;100628.00;;;8.94;100.00
67931;BME280;63902;52.000;5.954;2022-10-16T00:15:22;100634.97;;;8.97;100.00
67931;BME280;63902;52.000;5.954;2022-10-16T00:16:22;100629.69;;;8.97;100.00
67931;BME280;63902;52.000;5.954;2022-10-16T00:17:23;100634.97;;;8.97;100.00
67931;BME280;63902;52.000;5.954;2022-10-16T00:18:25;100632.44;;;8.94;100.00
67931;BME280;63902;52.000;5.954;2022-10-16T00:19:26;100626.47;;;8.89;100.00
67931;BME280;63902;52.000;5.954;2022-10-16T00:20:26;100636.13;;;8.90;100.00
67931;BME280;63902;52.000;5.954;2022-10-16T00:21:28;100631.75;;;8.89;100.00
67931;BME280;63902;52.000;5.954;2022-10-16T00:22:29;100628.25;;;8.88;100.00
67931;BME280;63902;52.000;5.954;2022-10-16T00:23:29;100602.31;;;8.74;100.00
67931;BME280;63902;52.000;5.954;2022-10-16T00:24:29;100624.91;;;8.83;100.00
67931;BME280;63902;52.000;5.954;2022-10-16T00:25:30;100628.25;;;8.88;100.00
67931;BME280;63902;52.000;5.954;2022-10-16T00:26:32;100631.75;;;8.89;100.00
67931;BME280;63902;52.000;5.954;2022-10-16T00:27:33;100638.75;;;8.90;100.00
67931;BME280;63902;52.000;5.954;2022-10-16T00:28:34;100635.22;;;8.91;100.00
67931;BME280;63902;52.000;5.954;2022-10-16T00:29:35;100636.94;;;8.92;100.00
67931;BME280;63902;52.000;5.954;2022-10-16T00:30:37;100628.13;;;8.91;100.00
67931;BME280;63902;52.000;5.954;2022-10-16T00:31:38;100622.72;;;8.94;100.00
67931;BME280;63902;52.000;5.954;2022-10-16T00:32:38;100624.31;;;8.99;100.00
67931;BME280;63902;52.000;5.954;2022-10-16T00:33:40;100619.97;;;8.98;100.00
67931;BME280;63902;52.000;5.954;2022-10-16T00:34:41;100622.56;;;8.99;100.00
67931;BME280;63902;52.000;5.954;2022-10-16T00:35:41;100622.59;;;8.98;100.00
67931;BME280;63902;52.000;5.954;2022-10-16T00:36:42;100626.09;;;8.98;100.00
67931;BME280;63902;52.000;5.954;2022-10-16T00:37:42;100627.09;;;8.95;100.00
67931;BME280;63902;52.000;5.954;2022-10-16T00:38:43;100633.16;;;8.99;100.00
67931;BME280;63902;52.000;5.954;2022-10-16T00:39:43;100624.31;;;8.99;100.00
67931;BME280;63902;52.000;5.954;2022-10-16T00:40:44;100633.94;;;9.01;100.00
67931;BME280;63902;52.000;5.954;2022-10-16T00:41:44;100631.28;;;9.01;100.00
67931;BME280;63902;52.000;5.954;2022-10-16T00:42:45;100631.84;;;9.09;100.00
67931;BME280;63902;52.000;5.954;2022-10-16T00:43:46;100632.59;;;9.13;100.00
67931;BME280;63902;52.000;5.954;2022-10-16T00:44:49;100617.28;;;8.99;100.00
67931;BME280;63902;52.000;5.954;2022-10-16T00:45:50;100637.97;;;9.11;100.00
67931;BME280;63902;52.000;5.954;2022-10-16T00:46:50;100631.56;;;9.17;100.00
67931;BME280;63902;52.000;5.954;2022-10-16T00:47:52;100632.31;;;9.21;100.00
67931;BME280;63902;52.000;5.954;2022-10-16T00:49:00;100633.47;;;9.13;100.00
67931;BME280;63902;52.000;5.954;2022-10-16T00:50:06;100634.25;;;9.15;100.00
67931;BME280;63902;52.000;5.954;2022-10-16T00:51:07;100629.09;;;9.12;100.00
67931;BME280;63902;52.000;5.954;2022-10-16T00:52:09;100634.38;;;9.12;100.00
67931;BME280;63902;52.000;5.954;2022-10-16T00:53:10;100637.72;;;9.17;100.00
67931;BME280;63902;52.000;5.954;2022-10-16T00:54:14;100634.34;;;9.14;100.00
67931;BME280;63902;52.000;5.954;2022-10-16T00:55:16;100624.72;;;9.11;100.00
67931;BME280;63902;52.000;5.954;2022-10-16T00:56:17;100632.06;;;9.27;100.00
67931;BME280;63902;52.000;5.954;2022-10-16T00:57:18;100633.69;;;9.31;100.00
67931;BME280;63902;52.000;5.954;2022-10-16T00:58:19;100639.78;;;9.33;100.00
67931;BME280;63902;52.000;5.954;2022-10-16T00:59:24;100636.38;;;9.29;100.00
67931;BME280;63902;52.000;5.954;2022-10-16T01:00:26;100627.84;;;9.23;100.00
67931;BME280;63902;52.000;5.954;2022-10-16T01:01:26;100636.59;;;9.25;100.00
67931;BME280;63902;52.000;5.954;2022-10-16T01:02:28;100630.47;;;9.23;100.00
67931;BME280;63902;52.000;5.954;2022-10-16T01:03:30;100633.16;;;9.21;100.00
67931;BME280;63902;52.000;5.954;2022-10-16T01:04:36;100625.44;;;9.16;100.00
67931;BME280;63902;52.000;5.954;2022-10-16T01:05:44;100630.59;;;9.19;100.00
67931;BME280;63902;52.000;5.954;2022-10-16T01:06:54;100638.53;;;9.19;100.00
67931;BME280;63902;52.000;5.954;2022-10-16T01:08:02;100642.09;;;9.18;100.00
67931;BME280;63902;52.000;5.954;2022-10-16T01:09:14;100634.22;;;9.17;100.00
67931;BME280;63902;52.000;5.954;2022-10-16T01:10:26;100640.44;;;9.16;100.00
67931;BME280;63902;52.000;5.954;2022-10-16T01:11:33;100629.34;;;9.06;100.00
67931;BME280;63902;52.000;5.954;2022-10-16T01:12:40;100635.25;;;9.13;100.00
67931;BME280;63902;52.000;5.954;2022-10-16T01:13:44;100647.28;;;9.22;100.00
67931;BME280;63902;52.000;5.954;2022-10-16T01:14:49;100646.34;;;9.23;100.00
67931;BME280;63902;52.000;5.954;2022-10-16T01:15:57;100650.91;;;9.19;100.00
67931;BME280;63902;52.000;5.954;2022-10-16T01:17:04;100645.75;;;9.16;100.00
67931;BME280;63902;52.000;5.954;2022-10-16T01:18:11;100649.13;;;9.19;100.00
67931;BME280;63902;52.000;5.954;2022-10-16T01:19:20;100648.31;;;9.17;100.00
67931;BME280;63902;52.000;5.954;2022-10-16T01:20:29;100643.13;;;9.14;100.00
67931;BME280;63902;52.000;5.954;2022-10-16T01:21:33;100642.28;;;9.14;100.00
67931;BME280;63902;52.000;5.954;2022-10-16T01:22:40;100638.56;;;9.18;100.00
67931;BME280;63902;52.000;5.954;2022-10-16T01:23:51;100635.88;;;9.19;100.00
67931;BME280;63902;52.000;5.954;2022-10-16T01:25:00;100633.97;;;9.23;100.00
67931;BME280;63902;52.000;5.954;2022-10-16T01:26:15;100631.34;;;9.23;100.00
67931;BME280;63902;52.000;5.954;2022-10-16T01:27:23;100633.16;;;9.21;100.00
67931;BME280;63902;52.000;5.954;2022-10-16T01:28:29;100627.84;;;9.23;100.00
67931;BME280;63902;52.000;5.954;2022-10-16T01:29:37;100618.22;;;9.20;100.00
67931;BME280;63902;52.000;5.954;2022-10-16T01:30:41;100634.06;;;9.22;100.00
67931;BME280;63902;52.000;5.954;2022-10-16T01:31:47;100635.78;;;9.23;100.00
67931;BME280;63902;52.000;5.954;2022-10-16T01:32:52;100626.28;;;9.17;100.00
67931;BME280;63902;52.000;5.954;2022-10-16T01:34:00;100628.84;;;9.18;100.00
67931;BME280;63902;52.000;5.954;2022-10-16T01:35:05;100627.25;;;9.14;100.00
67931;BME280;63902;52.000;5.954;2022-10-16T01:36:13;100628.97;;;9.15;100.00
67931;BME280;63902;52.000;5.954;2022-10-16T01:37:18;100630.84;;;9.13;100.00
67931;BME280;63902;52.000;5.954;2022-10-16T01:38:24;100625.53;;;9.13;100.00
67931;BME280;63902;52.000;5.954;2022-10-16T01:39:31;100624.66;;;9.13;100.00
67931;BME280;63902;52.000;5.954;2022-10-16T01:40:34;100637.00;;;9.14;100.00
67931;BME280;63902;52.000;5.954;2022-10-16T01:41:38;100630.84;;;9.13;100.00
67931;BME280;63902;52.000;5.954;2022-10-16T01:42:45;100637.69;;;9.19;100.00
67931;BME280;63902;52.000;5.954;2022-10-16T01:43:48;100637.47;;;9.24;100.00
67931;BME280;63902;52.000;5.954;2022-10-16T01:44:51;100642.66;;;9.27;100.00
67931;BME280;63902;52.000;5.954;2022-10-16T01:45:53;100639.16;;;9.26;100.00
67931;BME280;63902;52.000;5.954;2022-10-16T01:46:55;100636.59;;;9.25;100.00
67931;BME280;63902;52.000;5.954;2022-10-16T01:47:56;100624.31;;;9.22;100.00
67931;BME280;63902;52.000;5.954;2022-10-16T01:49:00;100618.28;;;9.18;100.00
67931;BME280;63902;52.000;5.954;2022-10-16T01:50:01;100621.72;;;9.21;100.00
67931;BME280;63902;52.000;5.954;2022-10-16T01:51:05;100633.16;;;9.21;100.00
67931;BME280;63902;52.000;5.954;2022-10-16T01:52:09;100630.63;;;9.18;100.00
67931;BME280;63902;52.000;5.954;2022-10-16T01:53:13;100628.94;;;9.17;100.00
67931;BME280;63902;52.000;5.954;2022-10-16T01:54:16;100634.09;;;9.20;100.00
67931;BME280;63902;52.000;5.954;2022-10-16T01:55:22;100630.59;;;9.19;100.00
67931;BME280;63902;52.000;5.954;2022-10-16T01:56:25;100626.28;;;9.17;100.00
67931;BME280;63902;52.000;5.954;2022-10-16T01:57:27;100627.25;;;9.14;100.00
67931;BME280;63902;52.000;5.954;2022-10-16T01:58:30;100622.78;;;9.16;100.00
67931;BME280;63902;52.000;5.954;2022-10-16T01:59:38;100632.44;;;9.17;100.00
67931;BME280;63902;52.000;5.954;2022-10-16T02:00:42;100639.44;;;9.18;100.00
67931;BME280;63902;52.000;5.954;2022-10-16T02:01:46;100637.69;;;9.19;100.00
67931;BME280;63902;52.000;5.954;2022-10-16T02:02:49;100642.91;;;9.21;100.00
67931;BME280;63902;52.000;5.954;2022-10-16T02:03:56;100644.66;;;9.22;100.00
67931;BME280;63902;52.000;5.954;2022-10-16T02:05:04;100653.44;;;9.22;100.00
67931;BME280;63902;52.000;5.954;2022-10-16T02:06:06;100653.38;;;9.24;100.00
67931;BME280;63902;52.000;5.954;2022-10-16T02:07:07;100647.22;;;9.23;100.00
67931;BME280;63902;52.000;5.954;2022-10-16T02:08:08;100642.84;;;9.22;100.00
67931;BME280;63902;52.000;5.954;2022-10-16T02:09:08;100637.59;;;9.21;100.00
67931;BME280;63902;52.000;5.954;2022-10-16T02:10:09;100634.09;;;9.20;100.00
67931;BME280;63902;52.000;5.954;2022-10-16T02:11:10;100641.06;;;9.23;100.00
67931;BME280;63902;52.000;5.954;2022-10-16T02:12:14;100638.41;;;9.23;100.00
67931;BME280;63902;52.000;5.954;2022-10-16T02:13:19;100641.19;;;9.19;100.00
67931;BME280;63902;52.000;5.954;2022-10-16T02:14:23;100633.38;;;9.16;100.00
67931;BME280;63902;52.000;5.954;2022-10-16T02:15:24;100634.22;;;9.17;100.00
67931;BME280;63902;52.000;5.954;2022-10-16T02:16:32;100630.72;;;9.16;100.00
67931;BME280;63902;52.000;5.954;2022-10-16T02:17:34;100636.75;;;9.20;100.00
67931;BME280;63902;52.000;5.954;2022-10-16T02:18:34;100644.66;;;9.22;100.00
67931;BME280;63902;52.000;5.954;2022-10-16T02:19:35;100649.81;;;9.25;100.00
67931;BME280;63902;52.000;5.954;2022-10-16T02:20:41;100646.22;;;9.26;100.00
67931;BME280;63902;52.000;5.954;2022-10-16T02:21:48;100646.00;;;9.32;100.00
67931;BME280;63902;52.000;5.954;2022-10-16T02:22:50;100639.59;;;9.37;100.00
67931;BME280;63902;52.000;5.954;2022-10-16T02:23:57;100643.53;;;9.49;100.00
67931;BME280;63902;52.000;5.954;2022-10-16T02:25:06;100645.16;;;9.53;100.00
67931;BME280;63902;52.000;5.954;2022-10-16T02:26:13;100638.16;;;9.52;100.00
67931;BME280;63902;52.000;5.954;2022-10-16T02:27:19;100640.91;;;9.49;100.00
67931;BME280;63902;52.000;5.954;2022-10-16T02:28:25;100648.84;;;9.49;100.00
67931;BME280;63902;52.000;5.954;2022-10-16T02:29:28;100645.41;;;9.47;100.00
67931;BME280;63902;52.000;5.954;2022-10-16T02:30:32;100647.19;;;9.47;100.00
67931;BME280;63902;52.000;5.954;2022-10-16T02:31:39;100649.16;;;9.41;100.00
67931;BME280;63902;52.000;5.954;2022-10-16T02:32:43;100625.69;;;9.32;100.00
67931;BME280;63902;52.000;5.954;2022-10-16T02:33:45;100642.81;;;9.46;100.00
67931;BME280;63902;52.000;5.954;2022-10-16T02:34:48;100646.31;;;9.46;100.00
67931;BME280;63902;52.000;5.954;2022-10-16T02:35:50;100644.59;;;9.45;100.00
67931;BME280;63902;52.000;5.954;2022-10-16T02:36:51;100651.69;;;9.45;100.00
67931;BME280;63902;52.000;5.954;2022-10-16T02:37:53;100645.53;;;9.44;100.00
67931;BME280;63902;52.000;5.954;2022-10-16T02:38:54;100652.59;;;9.44;100.00
67931;BME280;63902;52.000;5.954;2022-10-16T02:39:57;100651.72;;;9.43;100.00
67931;BME280;63902;52.000;5.954;2022-10-16T02:40:58;100649.91;;;9.45;100.00
67931;BME280;63902;52.000;5.954;2022-10-16T02:41:59;100645.41;;;9.47;100.00
67931;BME280;63902;52.000;5.954;2022-10-16T02:42:59;100641.56;;;9.54;100.00
67931;BME280;63902;52.000;5.954;2022-10-16T02:44:00;100645.03;;;9.56;100.00
67931;BME280;63902;52.000;5.954;2022-10-16T02:45:02;100643.31;;;9.55;100.00
67931;BME280;63902;52.000;5.954;2022-10-16T02:46:02;100646.84;;;9.56;100.00
67931;BME280;63902;52.000;5.954;2022-10-16T02:47:03;100646.88;;;9.54;100.00
67931;BME280;63902;52.000;5.954;2022-10-16T02:48:03;100641.81;;;9.48;100.00
67931;BME280;63902;52.000;5.954;2022-10-16T02:49:04;100640.97;;;9.48;100.00
67931;BME280;63902;52.000;5.954;2022-10-16T02:50:05;100646.31;;;9.46;100.00
67931;BME280;63902;52.000;5.954;2022-10-16T02:51:06;100652.53;;;9.45;100.00
67931;BME280;63902;52.000;5.954;2022-10-16T02:52:06;100649.94;;;9.44;100.00
67931;BME280;63902;52.000;5.954;2022-10-16T02:53:07;100650.94;;;9.41;100.00
67931;BME280;63902;52.000;5.954;2022-10-16T02:54:07;100643.78;;;9.43;100.00
67931;BME280;63902;52.000;5.954;2022-10-16T02:55:08;100644.72;;;9.42;100.00
67931;BME280;63902;52.000;5.954;2022-10-16T02:56:08;100645.66;;;9.41;100.00
67931;BME280;63902;52.000;5.954;2022-10-16T02:57:09;100645.75;;;9.38;100.00
67931;BME280;63902;52.000;5.954;2022-10-16T02:58:09;100650.13;;;9.39;100.00
67931;BME280;63902;52.000;5.954;2022-10-16T02:59:10;100652.06;;;9.35;100.00
67931;BME280;63902;52.000;5.954;2022-10-16T03:00:14;100655.69;;;9.33;100.00
67931;BME280;63902;52.000;5.954;2022-10-16T03:01:15;100663.53;;;9.34;100.00
67931;BME280;63902;52.000;5.954;2022-10-16T03:02:15;100666.19;;;9.34;100.00
67931;BME280;63902;52.000;5.954;2022-10-16T03:03:16;100662.72;;;9.32;100.00
67931;BME280;63902;52.000;5.954;2022-10-16T03:04:16;100662.81;;;9.31;100.00
67931;BME280;63902;52.000;5.954;2022-10-16T03:05:17;100662.69;;;9.34;100.00
67931;BME280;63902;52.000;5.954;2022-10-16T03:06:18;100660.16;;;9.31;100.00
67931;BME280;63902;52.000;5.954;2022-10-16T03:07:18;100660.03;;;9.34;100.00
67931;BME280;63902;52.000;5.954;2022-10-16T03:08:19;100646.13;;;9.29;100.00
67931;BME280;63902;52.000;5.954;2022-10-16T03:09:19;100647.94;;;9.27;100.00
67931;BME280;63902;52.000;5.954;2022-10-16T03:10:19;100655.84;;;9.28;100.00
67931;BME280;63902;52.000;5.954;2022-10-16T03:11:20;100638.41;;;9.23;100.00
67931;BME280;63902;52.000;5.954;2022-10-16T03:12:20;100653.75;;;9.36;100.00
67931;BME280;63902;52.000;5.954;2022-10-16T03:13:21;100650.19;;;9.37;100.00
67931;BME280;63902;52.000;5.954;2022-10-16T03:14:21;100645.69;;;9.39;100.00
67931;BME280;63902;52.000;5.954;2022-10-16T03:15:23;100646.63;;;9.38;100.00
67931;BME280;63902;52.000;5.954;2022-10-16T03:16:24;100625.06;;;9.26;100.00
67931;BME280;63902;52.000;5.954;2022-10-16T03:17:24;100642.06;;;9.42;100.00
67931;BME280;63902;52.000;5.954;2022-10-16T03:18:25;100635.84;;;9.43;100.00
67931;BME280;63902;52.000;5.954;2022-10-16T03:19:25;100633.06;;;9.46;100.00
67931;BME280;63902;52.000;5.954;2022-10-16T03:20:26;100631.38;;;9.45;100.00
67931;BME280;63902;52.000;5.954;2022-10-16T03:21:26;100643.50;;;9.51;100.00
67931;BME280;63902;52.000;5.954;2022-10-16T03:22:27;100641.56;;;9.54;100.00
67931;BME280;63902;52.000;5.954;2022-10-16T03:23:27;100645.03;;;9.56;100.00
67931;BME280;63902;52.000;5.954;2022-10-16T03:24:28;100647.56;;;9.59;100.00
67931;BME280;63902;52.000;5.954;2022-10-16T03:25:28;100659.78;;;9.63;100.00
67931;BME280;63902;52.000;5.954;2022-10-16T03:26:28;100659.53;;;9.70;100.00
67931;BME280;63902;52.000;5.954;2022-10-16T03:27:29;100664.81;;;9.70;100.00
67931;BME280;63902;52.000;5.954;2022-10-16T03:28:29;100657.91;;;9.66;100.00
67931;BME280;63902;52.000;5.954;2022-10-16T03:29:30;100664.75;;;9.71;100.00
67931;BME280;63902;52.000;5.954;2022-10-16T03:30:31;100666.47;;;9.72;100.00
67931;BME280;63902;52.000;5.954;2022-10-16T03:31:32;100670.25;;;9.67;100.00
67931;BME280;63902;52.000;5.954;2022-10-16T03:32:32;100671.03;;;9.69;100.00
67931;BME280;63902;52.000;5.954;2022-10-16T03:33:33;100663.88;;;9.71;100.00
67931;BME280;63902;52.000;5.954;2022-10-16T03:34:33;100662.03;;;9.73;100.00
67931;BME280;63902;52.000;5.954;2022-10-16T03:35:34;100666.22;;;9.78;100.00
67931;BME280;63902;52.000;5.954;2022-10-16T03:36:34;100659.94;;;9.81;100.00
67931;BME280;63902;52.000;5.954;2022-10-16T03:37:35;100657.31;;;9.81;100.00
67931;BME280;63902;52.000;5.954;2022-10-16T03:38:35;100663.50;;;9.80;100.00
67931;BME280;63902;52.000;5.954;2022-10-16T03:39:36;100654.78;;;9.78;100.00
67931;BME280;63902;52.000;5.954;2022-10-16T03:40:36;100656.63;;;9.76;100.00
67931;BME280;63902;52.000;5.954;2022-10-16T03:41:36;100663.63;;;9.77;100.00
67931;BME280;63902;52.000;5.954;2022-10-16T03:42:37;100654.91;;;9.75;100.00
67931;BME280;63902;52.000;5.954;2022-10-16T03:43:37;100659.31;;;9.74;100.00
67931;BME280;63902;52.000;5.954;2022-10-16T03:44:38;100663.75;;;9.74;100.00
67931;BME280;63902;52.000;5.954;2022-10-16T03:45:40;100665.59;;;9.72;100.00
67931;BME280;63902;52.000;5.954;2022-10-16T03:46:40;100667.38;;;9.71;100.00
67931;BME280;63902;52.000;5.954;2022-10-16T03:47:41;100671.09;;;9.67;100.00
67931;BME280;63902;52.000;5.954;2022-10-16T03:48:41;100674.59;;;9.68;100.00
67931;BME280;63902;52.000;5.954;2022-10-16T03:49:41;100670.91;;;9.72;100.00
67931;BME280;63902;52.000;5.954;2022-10-16T03:50:42;100670.91;;;9.72;100.00
67931;BME280;63902;52.000;5.954;2022-10-16T03:51:42;100670.72;;;9.76;100.00
67931;BME280;63902;52.000;5.954;2022-10-16T03:52:43;100680.28;;;9.80;100.00
67931;BME280;63902;52.000;5.954;2022-10-16T03:53:43;100676.56;;;9.84;100.00
67931;BME280;63902;52.000;5.954;2022-10-16T03:54:44;100683.47;;;9.89;100.00
67931;BME280;63902;52.000;5.954;2022-10-16T03:55:44;100675.59;;;9.87;100.00
67931;BME280;63902;52.000;5.954;2022-10-16T03:56:45;100681.75;;;9.88;100.00
67931;BME280;63902;52.000;5.954;2022-10-16T03:57:45;100679.19;;;9.86;100.00
67931;BME280;63902;52.000;5.954;2022-10-16T03:58:46;100678.28;;;9.85;100.00
67931;BME280;63902;52.000;5.954;2022-10-16T03:59:46;100672.09;;;9.86;100.00
67931;BME280;63902;52.000;5.954;2022-10-16T04:00:48;100672.13;;;9.85;100.00
67931;BME280;63902;52.000;5.954;2022-10-16T04:01:48;100667.69;;;9.85;100.00
67931;BME280;63902;52.000;5.954;2022-10-16T04:02:49;100659.00;;;9.82;100.00
67931;BME280;63902;52.000;5.954;2022-10-16T04:03:49;100663.38;;;9.83;100.00
67931;BME280;63902;52.000;5.954;2022-10-16T04:04:50;100668.81;;;9.80;100.00
67931;BME280;63902;52.000;5.954;2022-10-16T04:05:50;100672.38;;;9.79;100.00
67931;BME280;63902;52.000;5.954;2022-10-16T04:06:51;100675.09;;;9.77;100.00
67931;BME280;63902;52.000;5.954;2022-10-16T04:07:51;100681.28;;;9.78;100.00
67931;BME280;63902;52.000;5.954;2022-10-16T04:08:52;100688.31;;;9.77;100.00
67931;BME280;63902;52.000;5.954;2022-10-16T04:09:52;100684.81;;;9.77;100.00
67931;BME280;63902;52.000;5.954;2022-10-16T04:10:53;100678.66;;;9.76;100.00
67931;BME280;63902;52.000;5.954;2022-10-16T04:11:53;100683.09;;;9.76;100.00
67931;BME280;63902;52.000;5.954;2022-10-16T04:12:54;100692.84;;;9.75;100.00
67931;BME280;63902;52.000;5.954;2022-10-16T04:13:54;100690.25;;;9.74;100.00
67931;BME280;63902;52.000;5.954;2022-10-16T04:14:55;100687.69;;;9.72;100.00
67931;BME280;63902;52.000;5.954;2022-10-16T04:15:57;100690.38;;;9.71;100.00
67931;BME280;63902;52.000;5.954;2022-10-16T04:16:57;100695.75;;;9.69;100.00
67931;BME280;63902;52.000;5.954;2022-10-16T04:17:57;100693.94;;;9.70;100.00
67931;BME280;63902;52.000;5.954;2022-10-16T04:18:58;100700.97;;;9.71;100.00
67931;BME280;63902;52.000;5.954;2022-10-16T04:19:58;100692.34;;;9.66;100.00
67931;BME280;63902;52.000;5.954;2022-10-16T04:21:02;100700.97;;;9.71;100.00
67931;BME280;63902;52.000;5.954;2022-10-16T04:22:03;100702.69;;;9.72;100.00
67931;BME280;63902;52.000;5.954;2022-10-16T04:23:03;100700.09;;;9.70;100.00
67931;BME280;63902;52.000;5.954;2022-10-16T04:24:03;100713.28;;;9.72;100.00
67931;BME280;63902;52.000;5.954;2022-10-16T04:25:04;100705.41;;;9.70;100.00
67931;BME280;63902;52.000;5.954;2022-10-16T04:26:05;100707.88;;;9.75;100.00
67931;BME280;63902;52.000;5.954;2022-10-16T04:27:06;100707.00;;;9.74;100.00
67931;BME280;63902;52.000;5.954;2022-10-16T04:28:06;100714.78;;;9.79;100.00
67931;BME280;63902;52.000;5.954;2022-10-16T04:29:06;100714.78;;;9.79;100.00
67931;BME280;63902;52.000;5.954;2022-10-16T04:30:08;100719.13;;;9.80;100.00
67931;BME280;63902;52.000;5.954;2022-10-16T04:31:09;100713.97;;;9.77;100.00
67931;BME280;63902;52.000;5.954;2022-10-16T04:32:10;100716.44;;;9.81;100.00
67931;BME280;63902;52.000;5.954;2022-10-16T04:33:10;100719.13;;;9.80;100.00
67931;BME280;63902;52.000;5.954;2022-10-16T04:34:11;100722.75;;;9.77;100.00
67931;BME280;63902;52.000;5.954;2022-10-16T04:35:11;100723.41;;;9.84;100.00
67931;BME280;63902;52.000;5.954;2022-10-16T04:36:12;100726.88;;;9.86;100.00
67931;BME280;63902;52.000;5.954;2022-10-16T04:37:12;100722.47;;;9.85;100.00
67931;BME280;63902;52.000;5.954;2022-10-16T04:38:14;100730.28;;;9.88;100.00
67931;BME280;63902;52.000;5.954;2022-10-16T04:39:14;100725.69;;;9.93;100.00
67931;BME280;63902;52.000;5.954;2022-10-16T04:40:15;100730.72;;;9.99;100.00
67931;BME280;63902;52.000;5.954;2022-10-16T04:41:15;100727.84;;;10.05;100.00
67931;BME280;63902;52.000;5.954;2022-10-16T04:42:16;100719.00;;;10.05;100.00
67931;BME280;63902;52.000;5.954;2022-10-16T04:43:16;100727.47;;;10.15;100.00
67931;BME280;63902;52.000;5.954;2022-10-16T04:44:16;100729.13;;;10.17;100.00
67931;BME280;63902;52.000;5.954;2022-10-16T04:45:17;100727.34;;;10.18;100.00
67931;BME280;63902;52.000;5.954;2022-10-16T04:46:19;100733.59;;;10.17;100.00
67931;BME280;63902;52.000;5.954;2022-10-16T04:47:19;100730.03;;;10.16;100.00
67931;BME280;63902;52.000;5.954;2022-10-16T04:48:20;100730.13;;;10.15;100.00
67931;BME280;63902;52.000;5.954;2022-10-16T04:49:20;100738.06;;;10.15;100.00
67931;BME280;63902;52.000;5.954;2022-10-16T04:50:20;100731.84;;;10.16;100.00
67931;BME280;63902;52.000;5.954;2022-10-16T04:51:21;100715.25;;;10.11;100.00
67931;BME280;63902;52.000;5.954;2022-10-16T04:52:21;100739.53;;;10.22;100.00
67931;BME280;63902;52.000;5.954;2022-10-16T04:53:22;100727.22;;;10.21;100.00
67931;BME280;63902;52.000;5.954;2022-10-16T04:54:22;100734.09;;;10.25;100.00
67931;BME280;63902;52.000;5.954;2022-10-16T04:55:22;100730.81;;;10.20;100.00
67931;BME280;63902;52.000;5.954;2022-10-16T04:56:23;100732.50;;;10.21;100.00
67931;BME280;63902;52.000;5.954;2022-10-16T04:57:23;100731.72;;;10.19;100.00
67931;BME280;63902;52.000;5.954;2022-10-16T04:58:24;100729.25;;;10.14;100.00
67931;BME280;63902;52.000;5.954;2022-10-16T04:59:24;100729.31;;;10.13;100.00
67931;BME280;63902;52.000;5.954;2022-10-16T05:00:25;100746.06;;;10.13;100.00
67931;BME280;63902;52.000;5.954;2022-10-16T05:01:26;100738.94;;;10.15;100.00
67931;BME280;63902;52.000;5.954;2022-10-16T05:02:27;100741.44;;;10.18;100.00
67931;BME280;63902;52.000;5.954;2022-10-16T05:03:27;100742.38;;;10.17;100.00
67931;BME280;63902;52.000;5.954;2022-10-16T05:04:28;100748.59;;;10.16;100.00
67931;BME280;63902;52.000;5.954;2022-10-16T05:05:28;100749.56;;;10.14;100.00
67931;BME280;63902;52.000;5.954;2022-10-16T05:06:29;100758.47;;;10.13;100.00
67931;BME280;63902;52.000;5.954;2022-10-16T05:07:29;100752.22;;;10.14;100.00
67931;BME280;63902;52.000;5.954;2022-10-16T05:08:30;100750.47;;;10.14;100.00
67931;BME280;63902;52.000;5.954;2022-10-16T05:09:30;100759.28;;;10.15;100.00
67931;BME280;63902;52.000;5.954;2022-10-16T05:10:30;100750.47;;;10.14;100.00
67931;BME280;63902;52.000;5.954;2022-10-16T05:11:31;100749.56;;;10.14;100.00
67931;BME280;63902;52.000;5.954;2022-10-16T05:12:32;100745.94;;;10.16;100.00
67931;BME280;63902;52.000;5.954;2022-10-16T05:13:32;100744.91;;;10.20;100.00
67931;BME280;63902;52.000;5.954;2022-10-16T05:14:32;100745.72;;;10.22;100.00
67931;BME280;63902;52.000;5.954;2022-10-16T05:15:33;100749.16;;;10.24;100.00
67931;BME280;63902;52.000;5.954;2022-10-16T05:16:35;100751.88;;;10.23;100.00
67931;BME280;63902;52.000;5.954;2022-10-16T05:17:35;100751.88;;;10.23;100.00
67931;BME280;63902;52.000;5.954;2022-10-16T05:18:35;100755.44;;;10.22;100.00
67931;BME280;63902;52.000;5.954;2022-10-16T05:19:36;100750.34;;;10.17;100.00
67931;BME280;63902;52.000;5.954;2022-10-16T05:20:36;100759.19;;;10.16;100.00
67931;BME280;63902;52.000;5.954;2022-10-16T05:21:37;100753.16;;;10.13;100.00
67931;BME280;63902;52.000;5.954;2022-10-16T05:22:37;100766.25;;;10.17;100.00